createdAt,value
2017-08-05T00:00:31.470Z,100663.70
2017-08-05T00:02:59.397Z,100660.03
2017-08-05T00:05:27.317Z,100658.78
2017-08-05T00:07:55.237Z,100661.64
2017-08-05T00:10:23.176Z,100657.05
2017-08-05T00:12:52.100Z,100660.01
2017-08-05T00:15:20.029Z,100664.30
2017-08-05T00:17:47.934Z,100670.61
2017-08-05T00:20:15.867Z,100665.38
2017-08-05T00:22:43.784Z,100664.67
2017-08-05T00:25:11.795Z,100667.56
2017-08-05T00:27:39.719Z,100664.13
2017-08-05T00:30:08.038Z,100664.20
2017-08-05T00:32:35.947Z,100666.30
2017-08-05T00:35:04.032Z,100659.83
2017-08-05T00:37:31.946Z,100655.89
2017-08-05T00:39:59.922Z,100651.27
2017-08-05T00:42:27.842Z,100646.38
2017-08-05T00:44:55.755Z,100647.41
2017-08-05T00:47:23.684Z,100649.19
2017-08-05T00:49:51.595Z,100655.83
2017-08-05T00:52:19.517Z,100657.27
2017-08-05T00:54:47.427Z,100652.80
2017-08-05T00:57:15.351Z,100658.27
2017-08-05T00:59:43.268Z,100653.50
2017-08-05T01:02:11.444Z,100663.02
2017-08-05T01:04:39.352Z,100653.38
2017-08-05T01:07:07.569Z,100655.03
2017-08-05T01:09:35.497Z,100649.06
2017-08-05T01:12:04.016Z,100656.26
2017-08-05T01:14:32.341Z,100663.94
2017-08-05T01:17:00.242Z,100660.37
2017-08-05T01:19:28.770Z,100664.04
2017-08-05T01:21:56.693Z,100666.33
2017-08-05T01:24:25.010Z,100667.34
2017-08-05T01:26:52.950Z,100669.12
2017-08-05T01:29:21.275Z,100677.09
2017-08-05T01:31:49.221Z,100681.96
2017-08-05T01:34:17.127Z,100684.00
2017-08-05T01:36:45.057Z,100684.88
2017-08-05T01:39:12.991Z,100689.64
2017-08-05T01:41:41.060Z,100691.09
2017-08-05T01:44:08.967Z,100693.40
2017-08-05T01:46:36.871Z,100687.47
2017-08-05T01:49:04.792Z,100684.20
2017-08-05T01:51:33.088Z,100686.45
2017-08-05T01:54:01.034Z,100682.67
2017-08-05T01:56:29.445Z,100673.23
2017-08-05T01:58:57.353Z,100684.70
2017-08-05T02:01:25.284Z,100679.39
2017-08-05T02:03:53.209Z,100685.73
2017-08-05T02:06:21.118Z,100691.61
2017-08-05T02:08:49.143Z,100696.17
2017-08-05T02:11:17.047Z,100701.83
2017-08-05T02:13:44.965Z,100703.78
2017-08-05T02:16:13.184Z,100707.45
2017-08-05T02:18:41.107Z,100710.91
2017-08-05T02:21:09.031Z,100711.42
2017-08-05T02:23:36.932Z,100709.41
2017-08-05T02:26:04.938Z,100715.25
2017-08-05T02:28:33.258Z,100719.27
2017-08-05T02:31:01.282Z,100707.37
2017-08-05T02:33:29.209Z,100713.09
2017-08-05T02:35:57.165Z,100714.80
2017-08-05T02:38:25.089Z,100713.62
2017-08-05T02:40:53.003Z,100711.84
2017-08-05T02:43:20.937Z,100712.84
2017-08-05T02:45:49.249Z,100705.31
2017-08-05T02:48:17.177Z,100714.13
2017-08-05T02:50:45.497Z,100711.55
2017-08-05T02:53:13.432Z,100714.77
2017-08-05T02:55:41.749Z,100721.62
2017-08-05T02:58:09.671Z,100717.17
2017-08-05T03:00:37.681Z,100716.78
2017-08-05T03:03:05.814Z,100721.73
2017-08-05T03:05:34.129Z,100722.69
2017-08-05T03:08:02.057Z,100721.88
2017-08-05T03:10:29.976Z,100716.30
2017-08-05T03:12:57.883Z,100713.23
2017-08-05T03:15:25.856Z,100712.34
2017-08-05T03:17:53.778Z,100717.61
2017-08-05T03:20:21.917Z,100722.63
2017-08-05T03:22:50.252Z,100722.70
2017-08-05T03:25:18.160Z,100719.19
2017-08-05T03:27:46.479Z,100731.00
2017-08-05T03:30:14.391Z,100727.25
2017-08-05T03:32:42.317Z,100726.84
2017-08-05T03:35:10.233Z,100740.11
2017-08-05T03:37:38.161Z,100732.20
2017-08-05T03:40:06.070Z,100730.44
2017-08-05T03:42:34.011Z,100729.92
2017-08-05T03:45:01.959Z,100731.53
2017-08-05T03:47:29.876Z,100736.35
2017-08-05T03:49:57.795Z,100743.31
2017-08-05T03:52:25.922Z,100739.66
2017-08-05T03:54:53.854Z,100736.83
2017-08-05T03:57:21.772Z,100738.06
2017-08-05T03:59:50.102Z,100742.78
2017-08-05T04:02:18.031Z,100740.47
2017-08-05T04:04:45.952Z,100738.17
2017-08-05T04:07:13.879Z,100741.71
2017-08-05T04:09:41.920Z,100739.36
2017-08-05T04:12:09.830Z,100744.89
2017-08-05T04:14:37.922Z,100744.31
2017-08-05T04:17:05.845Z,100750.81
2017-08-05T04:19:34.140Z,100737.89
2017-08-05T04:22:02.075Z,100731.20
2017-08-05T04:24:29.991Z,100723.39
2017-08-05T04:26:57.910Z,100723.47
2017-08-05T04:29:25.819Z,100723.21
2017-08-05T04:31:53.746Z,100718.59
2017-08-05T04:34:21.650Z,100710.53
2017-08-05T04:36:49.688Z,100721.42
2017-08-05T04:39:17.592Z,100715.86
2017-08-05T04:41:45.511Z,100726.90
2017-08-05T04:44:13.438Z,100726.78
2017-08-05T04:46:41.564Z,100733.20
2017-08-05T04:49:09.472Z,100734.10
2017-08-05T04:51:37.376Z,100735.11
2017-08-05T04:54:05.301Z,100733.94
2017-08-05T04:56:33.233Z,100735.19
2017-08-05T04:59:01.158Z,100727.36
2017-08-05T05:01:29.126Z,100722.87
2017-08-05T05:03:57.054Z,100727.48
2017-08-05T05:06:25.374Z,100733.02
2017-08-05T05:08:53.304Z,100733.45
2017-08-05T05:11:21.640Z,100734.94
2017-08-05T05:13:49.833Z,100728.69
2017-08-05T05:16:17.736Z,100724.48
2017-08-05T05:18:46.094Z,100721.34
2017-08-05T05:21:14.430Z,100722.43
2017-08-05T05:23:42.338Z,100728.39
2017-08-05T05:26:10.251Z,100725.78
2017-08-05T05:28:38.177Z,100731.60
2017-08-05T05:31:06.215Z,100728.16
2017-08-05T05:33:34.148Z,100721.09
2017-08-05T05:36:02.080Z,100724.10
2017-08-05T05:38:29.994Z,100737.91
2017-08-05T05:40:58.219Z,100736.35
2017-08-05T05:43:26.136Z,100731.81
2017-08-05T05:45:54.061Z,100742.83
2017-08-05T05:48:21.980Z,100741.03
2017-08-05T05:50:49.902Z,100745.37
2017-08-05T05:53:17.925Z,100737.14
2017-08-05T05:55:45.841Z,100736.58
2017-08-05T05:58:13.774Z,100739.88
2017-08-05T06:00:41.690Z,100736.59
2017-08-05T06:03:09.803Z,100733.51
2017-08-05T06:05:37.730Z,100737.19
2017-08-05T06:08:05.637Z,100734.37
2017-08-05T06:10:33.558Z,100740.05
2017-08-05T06:13:01.464Z,100736.34
2017-08-05T06:15:29.384Z,100738.59
2017-08-05T06:17:57.304Z,100739.70
2017-08-05T06:20:25.426Z,100744.61
2017-08-05T06:22:53.357Z,100740.41
2017-08-05T06:25:21.279Z,100743.05
2017-08-05T06:27:49.249Z,100741.27
2017-08-05T06:30:17.164Z,100734.80
2017-08-05T06:32:45.101Z,100727.30
2017-08-05T06:35:13.516Z,100726.91
2017-08-05T06:37:41.585Z,100731.19
2017-08-05T06:40:10.022Z,100725.84
2017-08-05T06:42:37.950Z,100731.50
2017-08-05T06:45:05.873Z,100725.56
2017-08-05T06:47:34.534Z,100737.31
2017-08-05T06:50:02.430Z,100727.56
2017-08-05T06:52:30.839Z,100735.70
2017-08-05T06:54:58.763Z,100729.47
2017-08-05T06:57:27.154Z,100722.16
2017-08-05T06:59:55.480Z,100715.20
2017-08-05T07:02:23.384Z,100717.17
2017-08-05T07:04:51.561Z,100717.09
2017-08-05T07:07:19.484Z,100721.25
2017-08-05T07:09:47.413Z,100699.32
2017-08-05T07:12:15.738Z,100698.20
2017-08-05T07:14:43.645Z,100700.23
2017-08-05T07:17:11.971Z,100706.83
2017-08-05T07:19:39.880Z,100712.66
2017-08-05T07:22:07.824Z,100714.89
2017-08-05T07:24:35.737Z,100715.06
2017-08-05T07:27:04.054Z,100718.66
2017-08-05T07:29:31.981Z,100704.64
2017-08-05T07:32:00.515Z,100711.02
2017-08-05T07:34:28.423Z,100712.73
2017-08-05T07:36:56.340Z,100711.88
2017-08-05T07:39:24.246Z,100713.42
2017-08-05T07:41:52.174Z,100703.95
2017-08-05T07:44:20.224Z,100709.53
2017-08-05T07:46:48.534Z,100704.34
2017-08-05T07:49:16.458Z,100715.41
2017-08-05T07:51:44.774Z,100702.84
2017-08-05T07:54:13.031Z,100681.23
2017-08-05T07:56:40.951Z,100667.63
2017-08-05T07:59:08.875Z,100680.22
2017-08-05T08:01:36.805Z,100678.56
2017-08-05T08:04:04.744Z,100693.09
2017-08-05T08:06:32.744Z,100696.48
2017-08-05T08:09:00.664Z,100690.16
2017-08-05T08:11:28.571Z,100688.06
2017-08-05T08:13:56.529Z,100689.03
2017-08-05T08:16:24.872Z,100688.52
2017-08-05T08:18:52.776Z,100690.36
2017-08-05T08:21:20.879Z,100687.56
2017-08-05T08:23:48.800Z,100676.67
2017-08-05T08:26:16.707Z,100682.73
2017-08-05T08:28:44.636Z,100698.09
2017-08-05T08:31:12.549Z,100696.92
2017-08-05T08:33:40.479Z,100698.00
2017-08-05T08:36:08.396Z,100699.98
2017-08-05T08:38:37.118Z,100701.94
2017-08-05T08:41:05.028Z,100695.49
2017-08-05T08:43:32.942Z,100696.25
2017-08-05T08:46:00.877Z,100700.38
2017-08-05T08:48:28.791Z,100700.55
2017-08-05T08:50:56.756Z,100708.86
2017-08-05T08:53:24.690Z,100703.45
2017-08-05T08:55:53.025Z,100703.05
2017-08-05T08:58:20.938Z,100705.50
2017-08-05T09:00:49.259Z,100693.83
2017-08-05T09:03:17.224Z,100699.23
2017-08-05T09:05:45.148Z,100690.00
2017-08-05T09:08:13.071Z,100699.24
2017-08-05T09:10:40.992Z,100690.51
2017-08-05T09:13:09.365Z,100676.66
2017-08-05T09:15:37.263Z,100684.52
2017-08-05T09:18:05.351Z,100675.92
2017-08-05T09:20:33.260Z,100678.53
2017-08-05T09:23:01.193Z,100670.44
2017-08-05T09:25:29.133Z,100662.94
2017-08-05T09:27:57.292Z,100666.70
2017-08-05T09:30:25.625Z,100673.95
2017-08-05T09:32:53.538Z,100671.80
2017-08-05T09:35:21.879Z,100668.77
2017-08-05T09:37:49.885Z,100668.80
2017-08-05T09:40:17.824Z,100672.83
2017-08-05T09:42:45.736Z,100678.16
2017-08-05T09:45:14.062Z,100673.48
2017-08-05T09:47:41.971Z,100670.05
2017-08-05T09:50:10.308Z,100665.05
2017-08-05T09:52:38.220Z,100667.76
2017-08-05T09:55:06.553Z,100671.27
2017-08-05T09:57:34.486Z,100669.20
2017-08-05T10:00:02.639Z,100667.37
2017-08-05T10:02:30.952Z,100673.73
2017-08-05T10:04:58.868Z,100665.10
2017-08-05T10:07:26.805Z,100663.75
2017-08-05T10:09:54.728Z,100669.11
2017-08-05T10:12:23.040Z,100662.40
2017-08-05T10:14:50.980Z,100659.82
2017-08-05T10:17:19.392Z,100668.22
2017-08-05T10:19:47.320Z,100660.80
2017-08-05T10:22:15.337Z,100656.97
2017-08-05T10:24:43.255Z,100652.95
2017-08-05T10:27:11.307Z,100655.72
2017-08-05T10:29:39.210Z,100662.95
2017-08-05T10:32:07.514Z,100658.41
2017-08-05T10:34:35.443Z,100649.97
2017-08-05T10:37:03.374Z,100648.82
2017-08-05T10:39:31.302Z,100657.45
2017-08-05T10:41:59.224Z,100667.91
2017-08-05T10:44:27.299Z,100669.50
2017-08-05T10:46:55.216Z,100684.68
2017-08-05T10:49:23.148Z,100676.05
2017-08-05T10:51:51.069Z,100684.29
2017-08-05T10:54:18.984Z,100685.03
2017-08-05T10:56:46.899Z,100683.77
2017-08-05T10:59:14.807Z,100686.16
2017-08-05T11:01:42.732Z,100695.92
2017-08-05T11:04:10.665Z,100690.09
2017-08-05T11:06:38.810Z,100684.91
2017-08-05T11:09:06.711Z,100691.34
2017-08-05T11:11:35.014Z,100699.32
2017-08-05T11:14:02.936Z,100700.91
2017-08-05T11:16:30.842Z,100716.77
2017-08-05T11:18:59.164Z,100715.45
2017-08-05T11:21:27.065Z,100724.47
2017-08-05T11:23:54.988Z,100714.07
2017-08-05T11:26:22.903Z,100712.86
2017-08-05T11:28:50.827Z,100715.81
2017-08-05T11:31:18.740Z,100724.75
2017-08-05T11:33:46.913Z,100722.06
2017-08-05T11:36:14.935Z,100718.84
2017-08-05T11:38:42.849Z,100696.30
2017-08-05T11:41:10.769Z,100699.36
2017-08-05T11:43:38.688Z,100709.45
2017-08-05T11:46:06.615Z,100708.79
2017-08-05T11:48:34.532Z,100704.39
2017-08-05T11:51:02.472Z,100695.03
2017-08-05T11:53:30.384Z,100696.55
2017-08-05T11:55:58.691Z,100693.88
2017-08-05T11:58:26.599Z,100691.91
2017-08-05T12:00:54.512Z,100695.48
2017-08-05T12:03:22.451Z,100696.34
2017-08-05T12:05:50.355Z,100699.92
2017-08-05T12:08:18.386Z,100696.65
2017-08-05T12:10:46.290Z,100693.05
2017-08-05T12:13:14.208Z,100691.94
2017-08-05T12:15:42.221Z,100692.19
2017-08-05T12:18:10.364Z,100690.38
2017-08-05T12:20:38.290Z,100700.72
2017-08-05T12:23:06.209Z,100697.09
2017-08-05T12:25:34.126Z,100691.24
2017-08-05T12:28:02.063Z,100679.67
2017-08-05T12:30:30.021Z,100676.64
2017-08-05T12:32:58.327Z,100673.29
2017-08-05T12:35:26.357Z,100669.92
2017-08-05T12:37:54.279Z,100676.16
2017-08-05T12:40:22.207Z,100673.01
2017-08-05T12:42:51.184Z,100657.66
2017-08-05T12:45:19.260Z,100661.22
2017-08-05T12:47:47.188Z,100664.58
2017-08-05T12:50:15.190Z,100666.72
2017-08-05T12:52:43.123Z,100668.48
2017-08-05T12:55:11.037Z,100681.06
2017-08-05T12:57:39.318Z,100690.78
2017-08-05T13:00:07.529Z,100679.44
2017-08-05T13:02:35.446Z,100670.20
2017-08-05T13:05:03.375Z,100645.99
2017-08-05T13:07:31.292Z,100648.69
2017-08-05T13:09:59.230Z,100644.13
2017-08-05T13:12:27.244Z,100642.30
2017-08-05T13:14:55.563Z,100642.81
2017-08-05T13:17:23.466Z,100641.69
2017-08-05T13:19:51.766Z,100639.49
2017-08-05T13:22:19.693Z,100638.92
2017-08-05T13:24:47.599Z,100644.93
2017-08-05T13:27:15.524Z,100631.75
2017-08-05T13:29:43.446Z,100632.95
2017-08-05T13:32:11.759Z,100627.32
2017-08-05T13:34:39.875Z,100632.25
2017-08-05T13:37:07.807Z,100637.34
2017-08-05T13:39:35.717Z,100643.20
2017-08-05T13:42:03.656Z,100646.34
2017-08-05T13:44:31.567Z,100643.61
2017-08-05T13:46:59.502Z,100643.72
2017-08-05T13:49:27.434Z,100638.42
2017-08-05T13:51:55.560Z,100652.54
2017-08-05T13:54:23.486Z,100650.36
2017-08-05T13:56:51.409Z,100667.08
2017-08-05T13:59:19.326Z,100673.73
2017-08-05T14:01:47.343Z,100668.35
2017-08-05T14:04:15.262Z,100660.44
2017-08-05T14:06:43.159Z,100652.82
2017-08-05T14:09:11.075Z,100635.20
2017-08-05T14:11:39.401Z,100637.22
2017-08-05T14:14:07.329Z,100615.09
2017-08-05T14:16:35.508Z,100602.39
2017-08-05T14:19:03.656Z,100613.95
2017-08-05T14:21:31.566Z,100620.37
2017-08-05T14:23:59.494Z,100601.62
2017-08-05T14:26:27.821Z,100602.52
2017-08-05T14:28:55.724Z,100600.98
2017-08-05T14:31:23.639Z,100623.08
2017-08-05T14:33:51.567Z,100633.22
2017-08-05T14:36:19.616Z,100668.41
2017-08-05T14:38:47.541Z,100681.77
2017-08-05T14:41:15.821Z,100659.48
2017-08-05T14:43:43.746Z,100638.13
2017-08-05T14:46:11.690Z,100639.12
2017-08-05T14:48:39.640Z,100666.34
2017-08-05T14:51:07.551Z,100673.08
2017-08-05T14:53:35.476Z,100655.52
2017-08-05T14:56:03.409Z,100654.00
2017-08-05T14:58:31.740Z,100665.34
2017-08-05T15:00:59.665Z,100658.77
2017-08-05T15:03:27.968Z,100653.72
2017-08-05T15:05:55.891Z,100655.61
2017-08-05T15:08:23.824Z,100659.10
2017-08-05T15:10:51.727Z,100659.91
2017-08-05T15:13:19.660Z,100656.69
2017-08-05T15:15:47.571Z,100647.45
2017-08-05T15:18:15.977Z,100649.38
2017-08-05T15:20:43.966Z,100649.62
2017-08-05T15:23:11.896Z,100639.09
2017-08-05T15:25:40.223Z,100638.24
2017-08-05T15:28:08.141Z,100629.28
2017-08-05T15:30:36.061Z,100617.88
2017-08-05T15:33:03.976Z,100616.64
2017-08-05T15:35:31.891Z,100624.97
2017-08-05T15:37:59.794Z,100628.01
2017-08-05T15:40:27.728Z,100638.62
2017-08-05T15:42:55.648Z,100633.02
2017-08-05T15:45:23.575Z,100636.55
2017-08-05T15:47:51.479Z,100643.17
2017-08-05T15:50:19.548Z,100643.83
2017-08-05T15:52:47.472Z,100645.19
2017-08-05T15:55:15.625Z,100647.61
2017-08-05T15:57:43.565Z,100648.43
2017-08-05T16:00:11.477Z,100646.00
2017-08-05T16:02:39.402Z,100641.06
2017-08-05T16:05:07.324Z,100646.48
2017-08-05T16:07:35.254Z,100638.95
2017-08-05T16:10:03.588Z,100631.72
2017-08-05T16:12:31.688Z,100630.23
2017-08-05T16:14:59.655Z,100623.50
2017-08-05T16:17:27.637Z,100618.16
2017-08-05T16:19:55.975Z,100610.09
2017-08-05T16:22:23.902Z,100611.09
2017-08-05T16:24:52.258Z,100615.20
2017-08-05T16:27:20.581Z,100610.79
2017-08-05T16:29:48.511Z,100604.00
2017-08-05T16:32:16.439Z,100612.52
2017-08-05T16:34:44.759Z,100612.63
2017-08-05T16:37:12.679Z,100617.02
2017-08-05T16:39:40.588Z,100623.50
2017-08-05T16:42:08.932Z,100629.96
2017-08-05T16:44:36.843Z,100631.02
2017-08-05T16:47:05.495Z,100637.21
2017-08-05T16:49:33.414Z,100647.67
2017-08-05T16:52:01.730Z,100642.99
2017-08-05T16:54:29.659Z,100638.49
2017-08-05T16:56:57.959Z,100638.22
2017-08-05T16:59:25.898Z,100638.88
2017-08-05T17:01:54.979Z,100641.02
2017-08-05T17:04:22.907Z,100650.70
2017-08-05T17:06:50.830Z,100650.63
2017-08-05T17:09:19.291Z,100646.95
2017-08-05T17:11:47.507Z,100654.60
2017-08-05T17:14:15.420Z,100648.09
2017-08-05T17:16:43.352Z,100650.29
2017-08-05T17:19:11.464Z,100635.77
2017-08-05T17:21:39.410Z,100646.51
2017-08-05T17:24:07.423Z,100647.19
2017-08-05T17:26:35.343Z,100639.19
2017-08-05T17:29:03.496Z,100640.02
2017-08-05T17:31:31.535Z,100646.58
2017-08-05T17:34:00.348Z,100641.81
2017-08-05T17:36:28.660Z,100642.14
2017-08-05T17:38:56.594Z,100645.24
2017-08-05T17:41:25.005Z,100650.59
2017-08-05T17:43:52.957Z,100657.94
2017-08-05T17:46:20.872Z,100650.87
2017-08-05T17:48:48.812Z,100652.89
2017-08-05T17:51:16.738Z,100648.70
2017-08-05T17:53:44.657Z,100657.04
2017-08-05T17:56:12.577Z,100666.72
2017-08-05T17:58:40.560Z,100675.19
2017-08-05T18:01:08.503Z,100669.90
2017-08-05T18:03:36.438Z,100679.12
2017-08-05T18:06:04.369Z,100682.70
2017-08-05T18:08:32.679Z,100694.78
2017-08-05T18:11:00.612Z,100694.17
2017-08-05T18:13:28.928Z,100689.17
2017-08-05T18:15:56.839Z,100696.62
2017-08-05T18:18:24.751Z,100700.36
2017-08-05T18:20:52.886Z,100709.36
2017-08-05T18:23:20.797Z,100695.11
2017-08-05T18:25:48.714Z,100702.39
2017-08-05T18:28:16.633Z,100707.49
2017-08-05T18:30:44.552Z,100715.14
2017-08-05T18:33:12.473Z,100715.31
2017-08-05T18:35:40.392Z,100720.64
2017-08-05T18:38:08.390Z,100727.77
2017-08-05T18:40:36.292Z,100736.24
2017-08-05T18:43:04.535Z,100740.33
2017-08-05T18:45:32.476Z,100743.31
2017-08-05T18:48:00.555Z,100744.58
2017-08-05T18:50:28.532Z,100742.98
2017-08-05T18:52:56.916Z,100745.37
2017-08-05T18:55:26.045Z,100750.16
2017-08-05T18:57:54.062Z,100760.66
2017-08-05T19:00:22.046Z,100755.00
2017-08-05T19:02:50.355Z,100748.62
2017-08-05T19:05:18.388Z,100754.91
2017-08-05T19:07:46.312Z,100755.17
2017-08-05T19:10:14.236Z,100761.67
2017-08-05T19:12:42.574Z,100758.55
2017-08-05T19:15:10.531Z,100758.41
2017-08-05T19:17:38.473Z,100760.84
2017-08-05T19:20:06.455Z,100759.44
2017-08-05T19:22:34.377Z,100758.36
2017-08-05T19:25:02.296Z,100767.29
2017-08-05T19:27:30.211Z,100768.64
2017-08-05T19:29:58.146Z,100771.75
2017-08-05T19:32:26.270Z,100781.03
2017-08-05T19:34:54.576Z,100771.53
2017-08-05T19:37:22.502Z,100775.09
2017-08-05T19:39:50.930Z,100771.98
2017-08-05T19:42:18.878Z,100776.64
2017-08-05T19:44:46.807Z,100777.22
2017-08-05T19:47:14.736Z,100771.86
2017-08-05T19:49:42.648Z,100773.48
2017-08-05T19:52:10.733Z,100782.42
2017-08-05T19:54:38.631Z,100789.59
2017-08-05T19:57:06.536Z,100788.03
2017-08-05T19:59:34.463Z,100792.19
2017-08-05T20:02:02.778Z,100792.77
2017-08-05T20:04:30.696Z,100794.38
2017-08-05T20:06:59.020Z,100795.02
2017-08-05T20:09:27.228Z,100794.63
2017-08-05T20:11:55.157Z,100791.11
2017-08-05T20:14:24.334Z,100787.81
2017-08-05T20:16:52.252Z,100789.17
2017-08-05T20:19:20.838Z,100795.34
2017-08-05T20:21:48.746Z,100797.13
2017-08-05T20:24:17.065Z,100790.67
2017-08-05T20:26:45.013Z,100802.66
2017-08-05T20:29:12.947Z,100806.65
2017-08-05T20:31:41.214Z,100805.37
2017-08-05T20:34:09.131Z,100808.02
2017-08-05T20:36:37.039Z,100809.03
2017-08-05T20:39:04.964Z,100810.89
2017-08-05T20:41:32.874Z,100813.05
2017-08-05T20:44:00.797Z,100813.52
2017-08-05T20:46:28.780Z,100817.50
2017-08-05T20:48:56.695Z,100819.73
2017-08-05T20:51:24.594Z,100826.06
2017-08-05T20:53:52.955Z,100824.28
2017-08-05T20:56:20.880Z,100828.66
2017-08-05T20:58:49.504Z,100826.48
2017-08-05T21:01:17.459Z,100823.43
2017-08-05T21:03:45.376Z,100827.77
2017-08-05T21:06:13.301Z,100823.05
2017-08-05T21:08:41.212Z,100822.63
2017-08-05T21:11:09.130Z,100819.09
2017-08-05T21:13:37.046Z,100820.98
2017-08-05T21:16:05.192Z,100825.84
2017-08-05T21:18:33.108Z,100830.70
2017-08-05T21:21:01.029Z,100826.34
2017-08-05T21:23:28.947Z,100836.84
2017-08-05T21:25:56.897Z,100836.80
2017-08-05T21:28:24.883Z,100840.81
2017-08-05T21:30:52.795Z,100844.68
2017-08-05T21:33:20.711Z,100847.37
2017-08-05T21:35:48.627Z,100844.83
2017-08-05T21:38:16.848Z,100850.25
2017-08-05T21:40:44.768Z,100858.25
2017-08-05T21:43:12.839Z,100860.16
2017-08-05T21:45:40.753Z,100862.48
2017-08-05T21:48:09.053Z,100861.56
2017-08-05T21:50:36.972Z,100863.78
2017-08-05T21:53:05.180Z,100867.23
2017-08-05T21:55:33.726Z,100864.98
2017-08-05T21:58:01.692Z,100861.83
2017-08-05T22:00:29.650Z,100871.82
2017-08-05T22:02:57.561Z,100870.13
2017-08-05T22:05:26.226Z,100873.92
2017-08-05T22:07:54.432Z,100875.13
2017-08-05T22:10:22.359Z,100878.47
2017-08-05T22:12:50.286Z,100877.12
2017-08-05T22:15:18.204Z,100868.78
2017-08-05T22:17:46.489Z,100873.15
2017-08-05T22:20:14.573Z,100875.70
2017-08-05T22:22:42.890Z,100888.70
2017-08-05T22:25:10.806Z,100878.63
2017-08-05T22:27:38.737Z,100886.05
2017-08-05T22:30:06.657Z,100883.14
2017-08-05T22:32:34.976Z,100881.88
2017-08-05T22:35:02.999Z,100887.09
2017-08-05T22:37:31.324Z,100883.99
2017-08-05T22:39:59.243Z,100883.40
2017-08-05T22:42:27.553Z,100881.69
2017-08-05T22:44:55.459Z,100885.42
2017-08-05T22:47:23.365Z,100879.24
2017-08-05T22:49:51.822Z,100883.63
2017-08-05T22:52:19.737Z,100885.11
2017-08-05T22:54:47.643Z,100885.50
2017-08-05T22:57:15.572Z,100891.82
2017-08-05T22:59:43.500Z,100895.27
2017-08-05T23:02:11.424Z,100904.96
2017-08-05T23:04:39.351Z,100904.20
2017-08-05T23:07:07.427Z,100904.70
2017-08-05T23:09:35.765Z,100907.36
2017-08-05T23:12:03.665Z,100911.09
2017-08-05T23:14:31.596Z,100913.34
2017-08-05T23:16:59.505Z,100917.69
2017-08-05T23:19:27.440Z,100920.83
2017-08-05T23:21:55.387Z,100921.75
2017-08-05T23:24:23.771Z,100920.88
2017-08-05T23:26:51.675Z,100925.31
2017-08-05T23:29:19.598Z,100924.91
2017-08-05T23:31:47.523Z,100931.09
2017-08-05T23:34:15.443Z,100932.42
2017-08-05T23:36:43.368Z,100926.75
2017-08-05T23:39:11.273Z,100925.84
2017-08-05T23:41:39.215Z,100926.30
2017-08-05T23:44:07.529Z,100918.87
2017-08-05T23:46:35.436Z,100934.34
2017-08-05T23:49:03.359Z,100940.97
2017-08-05T23:51:31.274Z,100933.52
2017-08-05T23:53:59.450Z,100927.84
2017-08-05T23:56:27.363Z,100932.69
2017-08-05T23:58:55.296Z,100928.69
